Time;durP1;ratioP1;P1;durP2;ratioP2;P2;SDS_P1;SDS_P2;PMS_P1;PMS_P2;Temp;Humidity;BMP_temperature;BMP_pressure;BME280_temperature;BME280_humidity;BME280_pressure;Samples;Min_cycle;Max_cycle;Signal;HPM_P1;HPM_P2
2021/10/27 00:02:23;;;;;;;28.10;21.00;;;;;;;9.39;72.22;100680.45;113398;1193;112093;-72
2021/10/27 00:05:12;;;;;;;31.20;22.10;;;;;;;9.37;72.42;100676.86;114631;1193;139165;-73
2021/10/27 00:07:59;;;;;;;29.30;20.60;;;;;;;9.38;72.56;100670.94;114743;1193;108421;-74
2021/10/27 00:10:48;;;;;;;31.90;20.60;;;;;;;9.35;72.52;100672.05;114593;1193;138769;-72
2021/10/27 00:13:34;;;;;;;29.20;20.60;;;;;;;9.34;72.54;100669.29;114739;1193;96223;-72
2021/10/27 00:16:21;;;;;;;30.00;21.80;;;;;;;9.34;72.61;100674.49;114630;1194;138169;-72
2021/10/27 00:19:08;;;;;;;30.60;21.30;;;;;;;9.33;72.58;100676.95;114368;1193;108658;-73
2021/10/27 00:21:56;;;;;;;31.30;20.50;;;;;;;9.29;72.75;100680.31;113184;1193;138114;-72
2021/10/27 00:24:43;;;;;;;30.30;20.90;;;;;;;9.25;72.64;100683.52;113309;1193;97519;-71
2021/10/27 00:27:29;;;;;;;29.30;20.60;;;;;;;9.21;72.73;100688.29;113221;1194;138238;-72
2021/10/27 00:30:17;;;;;;;33.00;21.60;;;;;;;9.17;72.70;100687.33;113271;1193;112150;-72
2021/10/27 00:33:04;;;;;;;33.00;21.00;;;;;;;9.15;72.86;100690.30;113212;1193;137949;-70
2021/10/27 00:35:51;;;;;;;28.30;19.70;;;;;;;9.09;72.97;100686.77;113264;1193;108912;-71
2021/10/27 00:38:38;;;;;;;27.50;20.90;;;;;;;9.06;73.04;100684.93;113128;1195;97662;-71
2021/10/27 00:41:26;;;;;;;31.50;22.20;;;;;;;9.06;73.24;100686.66;114623;1193;137831;-72
2021/10/27 00:44:21;;;;;;;30.70;21.50;;;;;;;9.09;73.28;100691.45;114713;1193;112666;-72
2021/10/27 00:47:10;;;;;;;29.40;20.60;;;;;;;9.13;73.21;100693.11;114573;1193;137806;-72
2021/10/27 00:49:58;;;;;;;30.60;21.60;;;;;;;9.14;73.25;100691.19;114682;1193;108871;-72
2021/10/27 00:52:45;;;;;;;32.60;20.80;;;;;;;9.17;73.23;100689.95;114551;1193;138423;-72
2021/10/27 00:55:32;;;;;;;28.50;20.60;;;;;;;9.21;73.25;100690.72;114070;1193;97593;-72
2021/10/27 00:58:20;;;;;;;30.40;21.00;;;;;;;9.23;73.10;100688.08;113326;1193;137582;-72
2021/10/27 01:01:07;;;;;;;;;;;;;;;9.25;73.06;100682.32;114775;1193;108620;-72
2021/10/27 01:03:53;;;;;;;25.60;19.10;;;;;;;9.26;73.00;100684.02;114550;1193;124263;-72
2021/10/27 01:06:42;;;;;;;27.20;18.90;;;;;;;9.24;73.02;100680.07;114735;1193;96034;-72
2021/10/27 01:09:29;;;;;;;29.60;18.60;;;;;;;9.21;72.94;100680.66;114642;1193;138413;-72
2021/10/27 01:12:16;;;;;;;29.20;19.50;;;;;;;9.18;72.86;100679.67;114746;1194;111938;-72
2021/10/27 01:15:04;;;;;;;28.70;20.70;;;;;;;9.17;72.72;100684.39;114355;1193;108676;-72
2021/10/27 01:17:52;;;;;;;31.20;20.60;;;;;;;9.10;72.61;100678.26;114627;1193;108613;-72
2021/10/27 01:20:39;;;;;;;26.10;19.70;;;;;;;9.05;72.77;100681.30;114579;1193;96932;-73
2021/10/27 01:23:26;;;;;;;25.20;19.00;;;;;;;9.01;72.81;100689.70;113252;1193;138315;-72
2021/10/27 01:26:14;;;;;;;29.00;20.30;;;;;;;8.95;72.83;100689.80;114705;1193;110190;-72
2021/10/27 01:29:01;;;;;;;27.60;19.90;;;;;;;8.92;72.99;100689.88;114669;1193;138808;-72
2021/10/27 01:31:47;;;;;;;35.40;21.70;;;;;;;8.88;73.05;100697.41;114795;1193;107644;-71
2021/10/27 01:34:36;;;;;;;31.50;19.90;;;;;;;8.83;73.08;100694.05;114676;1193;138165;-71
2021/10/27 01:37:23;;;;;;;29.30;20.80;;;;;;;8.79;73.14;100697.73;114663;1193;96232;-71
2021/10/27 01:40:14;;;;;;;28.00;20.00;;;;;;;8.79;73.28;100707.95;114594;1186;138589;-71
2021/10/27 01:43:01;;;;;;;29.40;20.10;;;;;;;8.75;73.16;100708.04;114794;1193;108580;-71
2021/10/27 01:45:48;;;;;;;31.20;20.40;;;;;;;8.70;73.26;100713.33;114499;1193;138072;-71
2021/10/27 01:48:35;;;;;;;30.60;20.00;;;;;;;8.63;73.29;100715.01;114703;1193;95936;-71
2021/10/27 01:51:21;;;;;;;28.70;19.90;;;;;;;8.58;73.61;100707.46;114703;1193;95854;-72
2021/10/27 01:54:08;;;;;;;31.40;21.40;;;;;;;8.57;73.70;100708.17;114510;1191;137668;-71
2021/10/27 01:56:55;;;;;;;30.40;20.50;;;;;;;8.57;73.77;100706.27;114712;1193;108582;-71
2021/10/27 01:59:42;;;;;;;30.40;20.80;;;;;;;8.53;73.80;100709.98;114581;1193;138173;-71
2021/10/27 02:02:30;;;;;;;28.60;20.10;;;;;;;8.44;73.84;100715.14;114684;1193;95675;-71
2021/10/27 02:05:17;;;;;;;28.90;19.60;;;;;;;8.38;74.01;100714.54;114624;1193;138272;-72
2021/10/27 02:08:05;;;;;;;31.20;20.30;;;;;;;8.38;74.09;100709.34;114761;1193;112111;-72
2021/10/27 02:10:52;;;;;;;29.50;19.90;;;;;;;8.36;74.30;100712.66;114654;1193;139811;-71
2021/10/27 02:13:39;;;;;;;29.30;20.80;;;;;;;8.37;74.32;100711.44;114729;1193;108500;-72
2021/10/27 02:16:25;;;;;;;30.10;20.10;;;;;;;8.36;74.41;100719.08;114240;1193;138760;-72
2021/10/27 02:19:13;;;;;;;26.90;19.20;;;;;;;8.37;74.39;100721.66;113307;1187;97569;-73
2021/10/27 02:22:00;;;;;;;31.50;21.10;;;;;;;8.38;74.45;100722.85;113229;1193;138119;-71
2021/10/27 02:24:47;;;;;;;;;;;;;;;8.39;74.63;100724.74;114825;1193;108736;-72
2021/10/27 02:27:34;;;;;;;32.00;20.00;;;;;;;8.36;74.60;100721.49;114391;1194;107365;-72
2021/10/27 02:30:21;;;;;;;31.90;20.50;;;;;;;8.32;74.50;100719.46;113186;1193;137895;-72
2021/10/27 02:33:08;;;;;;;27.90;19.90;;;;;;;8.29;74.61;100719.50;113321;1194;97527;-71
2021/10/27 02:35:55;;;;;;;28.20;20.40;;;;;;;8.25;74.74;100722.33;113237;1193;138896;-72
2021/10/27 02:38:59;;;;;;;30.00;22.10;;;;;;;8.23;74.76;100724.77;113359;1194;108553;-72
2021/10/27 02:41:46;;;;;;;29.40;20.80;;;;;;;8.21;74.92;100725.66;113189;1193;137851;-72
2021/10/27 02:44:33;;;;;;;29.20;20.60;;;;;;;8.21;74.97;100722.91;114708;1193;96078;-71
2021/10/27 02:47:20;;;;;;;30.00;20.10;;;;;;;8.20;74.95;100721.02;114174;1195;138452;-73
2021/10/27 02:50:09;;;;;;;31.20;20.90;;;;;;;8.17;74.98;100719.50;113323;1193;110951;-72
2021/10/27 02:52:57;;;;;;;30.60;22.30;;;;;;;8.16;75.21;100719.88;113212;1193;137797;-72
2021/10/27 02:55:44;;;;;;;31.10;20.80;;;;;;;8.18;75.23;100722.44;113328;1193;108697;-72
2021/10/27 02:58:31;;;;;;;32.30;21.60;;;;;;;8.16;75.13;100722.13;112993;1195;137661;-72
2021/10/27 03:01:18;;;;;;;32.90;22.10;;;;;;;8.16;75.34;100726.44;113344;1193;97511;-73
2021/10/27 03:04:07;;;;;;;34.10;22.90;;;;;;;8.17;75.30;100729.55;113253;1193;137760;-71
2021/10/27 03:06:54;;;;;;;31.00;22.60;;;;;;;8.17;75.42;100733.54;113288;1193;108810;-72
2021/10/27 03:09:41;;;;;;;32.30;21.40;;;;;;;8.11;75.18;100736.92;114754;1193;107682;-73
2021/10/27 03:12:28;;;;;;;32.00;21.20;;;;;;;8.01;75.32;100736.36;114576;1193;138926;-72
2021/10/27 03:15:15;;;;;;;33.60;22.50;;;;;;;7.98;75.49;100735.03;114730;1193;95912;-72
2021/10/27 03:18:01;;;;;;;31.90;23.40;;;;;;;7.98;75.81;100736.94;114371;1186;138045;-73
2021/10/27 03:20:48;;;;;;;30.70;21.20;;;;;;;7.98;75.83;100740.22;113391;1193;108661;-72
2021/10/27 03:23:35;;;;;;;32.30;21.60;;;;;;;7.98;75.78;100742.98;113152;1193;138605;-72
2021/10/27 03:26:22;;;;;;;32.80;22.40;;;;;;;7.97;75.91;100742.84;114643;1193;95745;-72
2021/10/27 03:29:09;;;;;;;32.80;23.00;;;;;;;7.99;75.86;100745.73;114641;1193;137630;-72
2021/10/27 03:31:55;;;;;;;31.80;21.10;;;;;;;8.00;75.76;100753.17;114713;1194;110677;-72
2021/10/27 03:34:42;;;;;;;32.40;22.10;;;;;;;7.94;75.77;100751.02;114668;1193;138519;-73
2021/10/27 03:37:29;;;;;;;32.20;21.10;;;;;;;7.91;75.80;100745.70;114768;1193;108466;-72
2021/10/27 03:40:16;;;;;;;33.70;21.80;;;;;;;7.88;75.99;100743.98;114169;1193;137856;-71
2021/10/27 03:43:03;;;;;;;30.40;21.10;;;;;;;7.86;75.94;100749.19;114770;1193;95750;-72
2021/10/27 03:45:50;;;;;;;33.90;22.20;;;;;;;7.85;76.13;100746.09;114776;1193;112488;-72
2021/10/27 03:48:38;;;;;;;32.70;22.20;;;;;;;7.86;76.08;100749.89;114657;1193;139142;-72
2021/10/27 03:51:26;;;;;;;32.40;22.50;;;;;;;7.87;76.10;100748.32;114775;1193;108651;-73
2021/10/27 03:54:13;;;;;;;34.90;22.50;;;;;;;7.83;76.08;100752.70;113493;1193;137768;-72
2021/10/27 03:57:00;;;;;;;34.00;21.30;;;;;;;7.77;76.06;100755.39;114722;1193;95917;-73
2021/10/27 03:59:47;;;;;;;34.30;21.50;;;;;;;7.74;76.36;100749.73;114498;1193;139546;-72
2021/10/27 04:02:41;;;;;;;32.00;22.60;;;;;;;7.71;76.19;100753.37;114683;1193;109434;-72
2021/10/27 04:05:29;;;;;;;33.50;22.50;;;;;;;7.68;76.44;100749.61;114555;1193;137820;-72
2021/10/27 04:08:16;;;;;;;31.10;22.00;;;;;;;7.64;76.34;100748.44;114694;1193;96319;-72
2021/10/27 04:11:03;;;;;;;33.20;22.20;;;;;;;7.65;76.63;100753.45;114620;1193;137876;-72
2021/10/27 04:13:50;;;;;;;33.60;23.10;;;;;;;7.68;76.75;100748.90;113926;1193;112372;-71
2021/10/27 04:16:37;;;;;;;34.60;21.90;;;;;;;7.70;76.67;100749.91;113285;1193;137906;-72
2021/10/27 04:19:25;;;;;;;30.50;20.40;;;;;;;7.72;76.68;100747.66;114754;1193;108388;-72
2021/10/27 04:22:12;;;;;;;28.70;20.30;;;;;;;7.73;76.55;100753.71;114720;1193;95849;-73
2021/10/27 04:24:58;;;;;;;31.10;22.20;;;;;;;7.71;76.68;100753.02;114807;1193;96044;-72
2021/10/27 04:27:45;;;;;;;30.10;21.90;;;;;;;7.69;76.75;100754.42;114717;1193;112393;-72
2021/10/27 04:30:33;;;;;;;30.00;20.50;;;;;;;7.69;76.99;100762.56;113771;1193;140133;-72
2021/10/27 04:33:22;;;;;;;30.90;22.60;;;;;;;7.71;76.79;100758.56;114760;1193;108661;-72
2021/10/27 04:36:08;;;;;;;31.80;21.90;;;;;;;7.71;76.84;100761.33;113719;1193;137861;-71
2021/10/27 04:38:55;;;;;;;32.90;22.20;;;;;;;7.71;76.83;100763.23;113276;1194;97565;-71
2021/10/27 04:41:43;;;;;;;;;;;;;;;7.69;76.88;100764.29;113746;1193;138419;-71
2021/10/27 04:44:29;;;;;;;33.00;21.20;;;;;;;7.67;76.95;100764.16;114749;1193;107386;-72
2021/10/27 04:47:16;;;;;;;33.60;22.70;;;;;;;7.64;76.96;100764.54;114511;1193;138019;-72
2021/10/27 04:50:05;;;;;;;30.20;21.60;;;;;;;7.63;77.08;100768.54;113329;1193;97594;-71
2021/10/27 04:52:52;;;;;;;31.10;22.40;;;;;;;7.59;77.08;100767.89;114250;1193;137870;-71
2021/10/27 04:55:39;;;;;;;29.90;20.70;;;;;;;7.57;77.20;100768.95;113467;1193;112437;-71
2021/10/27 04:58:29;;;;;;;35.30;22.40;;;;;;;7.56;77.25;100768.10;113402;1193;108657;-71
2021/10/27 05:01:17;;;;;;;34.80;23.30;;;;;;;7.57;77.51;100771.04;114489;1193;139345;-71
2021/10/27 05:04:05;;;;;;;34.40;23.10;;;;;;;7.53;77.43;100766.90;114643;1193;96183;-71
2021/10/27 05:06:51;;;;;;;27.40;18.90;;;;;;;7.51;77.63;100765.54;114597;1193;138609;-71
2021/10/27 05:09:39;;;;;;;32.50;21.90;;;;;;;7.51;77.63;100764.86;114758;1193;111219;-71
2021/10/27 05:12:26;;;;;;;;;;;;;;;7.52;77.63;100766.56;114656;1193;137861;-71
2021/10/27 05:15:12;;;;;;;29.80;20.60;;;;;;;7.52;77.77;100767.09;114723;1193;108530;-71
2021/10/27 05:17:59;;;;;;;32.60;21.00;;;;;;;7.52;77.52;100765.88;114573;1193;139435;-70
2021/10/27 05:20:46;;;;;;;27.80;20.40;;;;;;;7.52;77.55;100773.14;113687;1193;97557;-71
2021/10/27 05:23:35;;;;;;;31.00;21.90;;;;;;;7.51;77.52;100769.87;114602;1193;137091;-71
2021/10/27 05:26:23;;;;;;;34.80;21.80;;;;;;;7.52;77.67;100773.84;114679;1193;108694;-71
2021/10/27 05:29:09;;;;;;;33.90;22.30;;;;;;;7.53;77.62;100776.08;114557;1193;138672;-71
2021/10/27 05:31:56;;;;;;;31.40;21.40;;;;;;;7.56;77.70;100778.14;113579;1193;97495;-71
2021/10/27 05:34:44;;;;;;;32.20;22.00;;;;;;;7.59;77.65;100777.23;113293;1193;97530;-72
2021/10/27 05:37:30;;;;;;;34.50;22.70;;;;;;;7.62;77.79;100785.51;114628;1193;138079;-72
2021/10/27 05:40:17;;;;;;;30.50;21.80;;;;;;;7.65;77.55;100787.20;114729;1193;108416;-72
2021/10/27 05:43:13;;;;;;;30.50;21.20;;;;;;;7.69;77.38;100789.04;114605;1193;138042;-72
2021/10/27 05:46:00;;;;;;;35.10;22.90;;;;;;;7.74;77.40;100791.26;114740;1193;95912;-71
2021/10/27 05:48:51;;;;;;;31.60;22.20;;;;;;;7.82;77.34;100787.85;114607;1193;138656;-72
2021/10/27 05:51:45;;;;;;;33.20;22.30;;;;;;;7.93;77.27;100789.98;114740;1193;111201;-71
2021/10/27 05:57:40;;;;;;;32.70;22.90;;;;;;;8.25;76.72;100798.58;114701;1193;108902;-71
2021/10/27 06:00:27;;;;;;;33.80;21.70;;;;;;;8.39;76.52;100797.52;114536;1193;138451;-70
2021/10/27 06:03:14;;;;;;;30.80;20.00;;;;;;;8.57;76.06;100797.61;114628;1193;97160;-71
2021/10/27 06:06:01;;;;;;;30.10;20.10;;;;;;;8.77;75.66;100801.64;114674;1193;138826;-72
2021/10/27 06:08:47;;;;;;;32.50;21.50;;;;;;;8.97;75.23;100797.33;114183;1193;108572;-73
2021/10/27 06:11:36;;;;;;;28.20;21.60;;;;;;;9.22;74.75;100798.96;113172;1194;138604;-71
2021/10/27 06:14:23;;;;;;;30.60;19.90;;;;;;;9.48;74.18;100794.85;113236;1193;97605;-72
2021/10/27 06:17:10;;;;;;;26.90;19.20;;;;;;;9.74;73.45;100799.73;113343;1193;97493;-72
2021/10/27 06:19:57;;;;;;;29.90;20.90;;;;;;;9.93;72.74;100800.02;113300;1193;112137;-67
2021/10/27 06:22:45;;;;;;;30.40;19.60;;;;;;;10.16;72.08;100802.33;113344;1193;107979;-71
2021/10/27 06:25:32;;;;;;;29.90;19.30;;;;;;;10.39;71.22;100803.23;113145;1193;139265;-72
2021/10/27 06:28:26;;;;;;;25.50;19.50;;;;;;;10.72;70.48;100803.69;114785;1193;96447;-71
2021/10/27 06:31:20;;;;;;;27.70;19.70;;;;;;;11.07;69.62;100808.55;114151;1193;139826;-69
2021/10/27 06:49:07;;;;;;;28.70;19.30;;;;;;;12.30;66.45;100828.00;113208;1193;138220;-70
2021/10/27 06:51:54;;;;;;;26.60;20.20;;;;;;;12.13;66.49;100831.46;113303;1193;108716;-70
2021/10/27 06:54:41;;;;;;;25.30;20.50;;;;;;;11.95;66.60;100833.04;113183;1193;138299;-70
2021/10/27 06:57:28;;;;;;;24.60;19.80;;;;;;;11.93;66.85;100835.89;113372;1193;97548;-70
2021/10/27 07:00:21;;;;;;;28.70;20.50;;;;;;;12.09;67.07;100839.45;113505;1193;137938;-71
2021/10/27 07:03:40;;;;;;;30.10;19.90;;;;;;;12.23;66.41;100832.94;114816;1193;112096;-69
2021/10/27 07:06:47;;;;;;;25.20;19.40;;;;;;;12.14;65.99;100831.27;114552;1193;138763;-68
2021/10/27 07:15:43;;;;;;;29.30;20.50;;;;;;;12.16;66.02;100828.61;113335;1193;97803;-71
2021/10/27 07:18:30;;;;;;;29.00;20.60;;;;;;;12.42;65.81;100831.48;113184;1193;137776;-69
2021/10/27 07:21:17;;;;;;;28.10;19.80;;;;;;;12.59;65.26;100832.36;113295;1195;109735;-69
2021/10/27 07:24:05;;;;;;;21.80;18.80;;;;;;;12.68;64.98;100833.27;113335;1193;138255;-70
2021/10/27 07:26:53;;;;;;;;;;;;;;;12.70;64.58;100836.52;114772;1193;95912;-74
2021/10/27 07:29:43;;;;;;;25.90;18.60;;;;;;;12.62;64.53;100839.96;114635;1193;125048;-70
2021/10/27 07:32:30;;;;;;;25.20;18.30;;;;;;;12.67;64.78;100833.15;114752;1193;111116;-70
2021/10/27 07:35:23;;;;;;;25.40;18.60;;;;;;;13.08;64.67;100834.98;114726;1193;106150;-66
2021/10/27 07:41:15;;;;;;;24.00;17.90;;;;;;;14.52;62.85;100835.05;114711;1193;95985;-72
2021/10/27 07:44:13;;;;;;;26.60;17.60;;;;;;;15.22;61.77;100840.44;113910;1193;137779;-70
2021/10/27 07:47:00;;;;;;;23.90;16.90;;;;;;;16.05;59.89;100834.59;113365;1193;112401;-71
2021/10/27 07:49:47;;;;;;;19.70;15.70;;;;;;;16.27;58.41;100837.06;113207;1193;138097;-69
2021/10/27 07:52:34;;;;;;;;;;;;;;;16.02;57.88;100837.69;113353;1193;109283;-70
2021/10/27 07:55:21;;;;;;;20.10;16.10;;;;;;;15.49;57.68;100836.86;114676;1193;124432;-71
2021/10/27 07:58:08;;;;;;;;;;;;;;;15.08;58.61;100841.58;114768;1193;96862;-72
2021/10/27 08:00:58;;;;;;;21.60;17.70;;;;;;;14.71;58.78;100843.92;114663;1193;123972;-72
2021/10/27 08:03:45;;;;;;;24.00;17.90;;;;;;;14.31;59.37;100840.95;114736;1193;107628;-71
2021/10/27 08:06:32;;;;;;;22.90;17.00;;;;;;;13.93;59.56;100844.27;114591;1193;139422;-71
2021/10/27 08:09:18;;;;;;;27.50;19.00;;;;;;;13.57;60.09;100842.77;114748;1193;95870;-71
2021/10/27 08:12:05;;;;;;;24.00;18.50;;;;;;;13.24;60.61;100849.13;113582;1193;138450;-71
2021/10/27 08:14:52;;;;;;;26.10;17.90;;;;;;;13.14;61.30;100850.14;114724;1193;112224;-71
2021/10/27 08:17:41;;;;;;;24.00;17.50;;;;;;;13.38;61.27;100850.55;114785;1193;107491;-72
2021/10/27 08:20:28;;;;;;;23.90;19.20;;;;;;;13.49;61.11;100847.95;114540;1193;138856;-71
2021/10/27 08:23:20;;;;;;;26.90;18.60;;;;;;;13.49;61.17;100857.92;114718;1193;95596;-71
2021/10/27 08:26:10;;;;;;;22.40;17.50;;;;;;;13.79;60.96;100852.12;114554;1193;137675;-72
2021/10/27 08:28:59;;;;;;;22.50;17.00;;;;;;;14.45;60.07;100846.88;113309;1193;112251;-71
2021/10/27 08:31:54;;;;;;;22.40;17.10;;;;;;;15.01;58.83;100836.61;113196;1193;136924;-71
2021/10/27 08:34:46;;;;;;;21.90;16.20;;;;;;;15.43;58.22;100844.83;113354;1193;107429;-71
2021/10/27 08:37:33;;;;;;;21.80;16.10;;;;;;;16.15;57.24;100843.03;114600;1193;138325;-72
2021/10/27 08:40:20;;;;;;;21.90;16.00;;;;;;;16.34;55.98;100844.98;114704;1193;96120;-72
2021/10/27 08:43:09;;;;;;;19.20;15.90;;;;;;;16.07;55.72;100853.45;114617;1193;138540;-72
2021/10/27 08:45:57;;;;;;;20.70;15.10;;;;;;;15.79;55.90;100854.84;114744;1193;108624;-73
2021/10/27 08:48:50;;;;;;;21.00;15.70;;;;;;;15.43;56.12;100857.05;114590;1193;138527;-72
2021/10/27 08:51:37;;;;;;;20.10;15.60;;;;;;;15.19;57.00;100854.95;114678;1193;95987;-73
2021/10/27 08:54:25;;;;;;;22.40;16.40;;;;;;;15.18;57.17;100853.77;113214;1193;137961;-73
2021/10/27 08:57:13;;;;;;;22.30;15.30;;;;;;;15.12;57.29;100850.85;114725;1193;112082;-72
2021/10/27 09:00:13;;;;;;;22.60;16.30;;;;;;;14.96;57.15;100848.02;114722;1193;108730;-73
2021/10/27 09:06:17;;;;;;;19.60;15.10;;;;;;;14.98;57.38;100835.14;114692;1193;96079;-73
2021/10/27 09:37:28;;;;;;;17.20;12.00;;;;;;;16.40;54.41;100820.14;114752;1193;95978;-70
2021/10/27 09:46:36;;;;;;;19.20;11.50;;;;;;;16.25;54.46;100819.79;114606;1193;137708;-70
2021/10/27 10:05:30;;;;;;;16.80;11.40;;;;;;;14.84;56.16;100835.37;114101;1200;109489;-70
2021/10/27 10:08:17;;;;;;;16.40;10.90;;;;;;;14.66;56.50;100839.07;114630;1195;95588;-70
2021/10/27 10:11:05;;;;;;;16.20;11.00;;;;;;;14.50;56.67;100836.70;114764;1193;95858;-70
2021/10/27 10:13:58;;;;;;;21.10;11.30;;;;;;;14.34;56.75;100839.23;114758;1193;112377;-70
2021/10/27 10:16:51;;;;;;;16.80;12.50;;;;;;;14.24;57.11;100836.48;114618;1193;138525;-70
2021/10/27 10:19:41;;;;;;;17.70;11.60;;;;;;;14.25;57.43;100832.59;114744;1193;108752;-70
2021/10/27 10:22:41;;;;;;;16.80;11.70;;;;;;;14.26;57.39;100834.13;114643;1193;138353;-69
2021/10/27 10:25:31;;;;;;;16.40;11.20;;;;;;;14.18;57.53;100832.48;114707;1193;96023;-70
2021/10/27 10:28:26;;;;;;;17.30;11.90;;;;;;;14.21;57.82;100830.45;114625;1193;138343;-70
2021/10/27 10:31:31;;;;;;;16.50;12.40;;;;;;;14.35;57.84;100830.80;114745;1193;108570;-70
2021/10/27 10:34:45;;;;;;;19.50;12.20;;;;;;;14.58;57.88;100826.96;114671;1193;138495;-69
2021/10/27 10:38:23;;;;;;;15.40;11.30;;;;;;;14.94;57.71;100827.23;114761;1193;95741;-70
2021/10/27 10:40:58;;;;;;;15.30;11.30;;;;;;;15.27;57.04;100823.78;114061;1193;137819;-73
2021/10/27 10:44:05;;;;;;;18.50;12.00;;;;;;;15.38;56.45;100825.02;113253;1193;112366;-69
2021/10/27 11:24:08;;;;;;;14.10;10.00;;;;;;;16.46;54.58;100807.40;113186;1193;137713;-72
2021/10/27 11:27:12;;;;;;;14.30;9.70;;;;;;;16.56;54.35;100804.45;113336;1193;97524;-72
2021/10/27 11:39:49;;;;;;;12.80;8.60;;;;;;;16.84;53.48;100811.02;113245;1193;97917;-70
2021/10/27 11:42:50;;;;;;;13.00;8.90;;;;;;;16.98;53.26;100809.48;113166;1193;137549;-71
2021/10/27 11:45:41;;;;;;;11.50;8.80;;;;;;;17.12;53.41;100806.11;113368;1193;111738;-70
2021/10/27 11:48:51;;;;;;;12.30;8.40;;;;;;;17.24;52.81;100802.89;114634;1193;210250;-71
2021/10/27 11:51:37;;;;;;;12.90;8.90;;;;;;;17.25;52.68;100799.98;114681;1186;108727;-71
2021/10/27 11:54:27;;;;;;;13.30;8.10;;;;;;;17.19;52.44;100798.73;114627;1193;138707;-72
2021/10/27 11:57:14;;;;;;;10.50;7.70;;;;;;;17.13;52.18;100803.45;114724;1193;95949;-71
2021/10/27 12:00:05;;;;;;;;;;;;;;;17.05;52.27;100798.41;114621;1193;137529;-71
2021/10/27 12:03:41;;;;;;;11.10;7.60;;;;;;;16.97;52.17;100790.18;114601;1193;109301;-71
2021/10/27 12:06:14;;;;;;;11.40;7.30;;;;;;;16.84;51.97;100790.09;114602;1193;137732;-72
2021/10/27 12:09:22;;;;;;;12.90;7.90;;;;;;;16.70;52.14;100792.23;114732;1186;95716;-72
2021/10/27 12:12:17;;;;;;;9.60;6.80;;;;;;;16.60;52.35;100785.11;114659;1193;137993;-72
2021/10/27 12:18:05;;;;;;;10.00;7.10;;;;;;;16.33;52.59;100793.45;114585;1193;137941;-72
2021/10/27 12:20:56;;;;;;;15.80;8.40;;;;;;;16.15;52.91;100792.38;114707;1193;108726;-72
2021/10/27 12:23:50;;;;;;;11.60;7.80;;;;;;;16.04;53.09;100789.04;114585;1193;137885;-71
2021/10/27 12:26:44;;;;;;;9.40;7.20;;;;;;;15.87;53.16;100788.05;114739;1193;95851;-71
2021/10/27 12:29:34;;;;;;;11.50;7.50;;;;;;;15.68;53.50;100788.52;114669;1193;137912;-71
2021/10/27 12:32:22;;;;;;;10.40;7.00;;;;;;;15.52;53.71;100788.69;114749;1193;108653;-75
2021/10/27 12:35:12;;;;;;;11.10;6.60;;;;;;;15.39;54.16;100784.89;114651;1193;138310;-74
2021/10/27 12:38:22;;;;;;;11.60;6.80;;;;;;;15.30;54.26;100778.44;114714;1193;99507;-72
2021/10/27 12:41:16;;;;;;;8.70;6.50;;;;;;;15.20;54.37;100780.46;114636;1193;138231;-73
2021/10/27 12:44:24;;;;;;;10.30;6.80;;;;;;;15.09;54.47;100781.61;114716;1193;112306;-74
2021/10/27 12:47:20;;;;;;;14.20;7.50;;;;;;;14.98;54.79;100776.48;113568;1193;137787;-73
2021/10/27 12:50:18;;;;;;;10.80;7.50;;;;;;;14.89;55.13;100781.41;113334;1193;109157;-73
2021/10/27 12:53:08;;;;;;;11.50;7.30;;;;;;;14.79;55.40;100779.73;113174;1193;138056;-73
2021/10/27 12:56:22;;;;;;;11.50;7.50;;;;;;;14.72;55.80;100779.66;114755;1193;95825;-72
2021/10/27 12:59:12;;;;;;;10.00;7.00;;;;;;;14.65;55.96;100774.36;114655;1193;136991;-72
2021/10/27 13:02:20;;;;;;;9.80;6.50;;;;;;;14.57;55.95;100770.70;114702;1193;108498;-72
2021/10/27 13:05:25;;;;;;;9.20;6.10;;;;;;;14.54;56.09;100761.67;114345;1195;137514;-72
2021/10/27 13:08:45;;;;;;;9.40;5.70;;;;;;;14.52;55.97;100760.52;114511;1195;96230;-72
2021/10/27 13:18:09;;;;;;;9.70;6.20;;;;;;;14.49;56.38;100759.58;114499;1195;138642;-72
2021/10/27 13:29:53;;;;;;;8.00;6.40;;;;;;;14.43;56.55;100766.83;114446;1195;137558;-71
2021/10/27 13:33:00;;;;;;;15.20;6.80;;;;;;;14.35;56.35;100765.88;114589;1195;108754;-72
2021/10/27 13:35:48;;;;;;;12.70;5.90;;;;;;;14.28;56.55;100765.81;114404;1195;137651;-72
2021/10/27 13:38:36;;;;;;;10.80;5.90;;;;;;;14.23;56.69;100775.48;114524;1194;96249;-72
2021/10/27 13:41:23;;;;;;;8.40;6.20;;;;;;;14.19;56.85;100780.32;114418;1195;137902;-72
2021/10/27 13:44:16;;;;;;;11.70;6.50;;;;;;;14.15;57.02;100778.55;114578;1195;110646;-70
2021/10/27 13:59:19;;;;;;;11.90;6.20;;;;;;;13.98;57.80;100787.60;114493;1195;138692;-67
2021/10/27 14:08:23;;;;;;;11.50;6.70;;;;;;;13.82;58.24;100779.30;114649;1193;96074;-71
2021/10/27 14:14:15;;;;;;;15.20;7.40;;;;;;;13.77;58.40;100769.84;114686;1193;112066;-69
2021/10/27 14:20:31;;;;;;;10.80;6.90;;;;;;;13.71;58.49;100761.70;114717;1193;108515;-70
2021/10/27 14:39:10;;;;;;;11.80;6.70;;;;;;;13.58;58.84;100765.86;114545;1193;137875;-70
2021/10/27 14:50:23;;;;;;;10.60;6.20;;;;;;;13.48;58.98;100755.05;113191;1194;137758;-70
2021/10/27 15:25:46;;;;;;;9.80;6.70;;;;;;;13.22;59.43;100749.30;114566;1193;137743;-67
2021/10/27 15:28:52;;;;;;;10.40;6.10;;;;;;;13.19;59.54;100749.40;114726;1193;95803;-69
2021/10/27 15:32:08;;;;;;;8.60;5.90;;;;;;;13.16;59.42;100744.96;114055;1193;110909;-67
2021/10/27 15:35:19;;;;;;;10.40;6.60;;;;;;;13.14;59.61;100747.67;114688;1187;108196;-68
2021/10/27 15:51:15;;;;;;;14.50;7.80;;;;;;;13.09;59.93;100751.31;114442;1193;108700;-68
2021/10/27 15:53:55;;;;;;;11.80;7.20;;;;;;;13.09;60.07;100753.23;114662;1193;108395;-67
2021/10/27 15:56:43;;;;;;;12.80;8.20;;;;;;;13.09;60.02;100752.17;113902;1193;137828;-66
2021/10/27 15:59:30;;;;;;;15.20;8.70;;;;;;;13.10;60.06;100755.81;113213;1195;97605;-68
2021/10/27 16:02:17;;;;;;;12.40;8.20;;;;;;;13.09;60.07;100754.96;114673;1193;137789;-68
2021/10/27 16:05:06;;;;;;;;;;;;;;;13.09;60.06;100749.91;114693;1193;108218;-66
2021/10/27 16:07:58;;;;;;;17.50;9.30;;;;;;;13.08;60.25;100748.20;114510;1193;125320;-66
2021/10/27 16:10:46;;;;;;;13.40;8.90;;;;;;;13.07;60.18;100744.59;114682;1193;95986;-67
2021/10/27 16:13:33;;;;;;;16.60;9.80;;;;;;;13.04;60.32;100745.89;114629;1193;137897;-66
2021/10/27 16:16:19;;;;;;;14.40;9.30;;;;;;;13.01;60.28;100750.37;114670;1193;112029;-67
2021/10/27 16:19:06;;;;;;;14.70;9.70;;;;;;;13.01;60.36;100754.20;114593;1186;138580;-67
2021/10/27 16:21:53;;;;;;;15.30;9.20;;;;;;;13.02;60.40;100759.23;114706;1193;108424;-67
2021/10/27 16:24:40;;;;;;;18.20;10.40;;;;;;;13.03;60.46;100761.65;114618;1193;138460;-68
2021/10/27 16:27:27;;;;;;;13.40;9.30;;;;;;;13.03;60.42;100759.03;114635;1193;96105;-67
2021/10/27 16:30:14;;;;;;;15.30;9.80;;;;;;;13.03;60.44;100761.45;114688;1193;111232;-70
2021/10/27 16:33:01;;;;;;;16.70;9.60;;;;;;;13.04;60.43;100769.31;114587;1193;138206;-67
2021/10/27 16:35:52;;;;;;;18.50;9.70;;;;;;;13.03;60.42;100773.69;114695;1193;107492;-68
2021/10/27 16:38:40;;;;;;;17.70;10.00;;;;;;;13.00;60.37;100771.86;114565;1193;137765;-67
2021/10/27 16:41:27;;;;;;;16.40;9.90;;;;;;;13.00;60.45;100771.88;114661;1193;95805;-68
2021/10/27 16:44:14;;;;;;;16.10;10.00;;;;;;;12.98;60.40;100776.30;114533;1193;137759;-68
2021/10/27 16:47:01;;;;;;;17.20;10.60;;;;;;;12.96;60.45;100774.08;114706;1193;108791;-68
2021/10/27 16:49:48;;;;;;;18.60;9.50;;;;;;;12.95;60.46;100773.79;114543;1193;138570;-68